Map

Track Data

SID SEASON NUMBER BASIN SUBBASIN NAME ISO_TIME NATURE LAT LON WMO_WIND WMO_PRES WMO_AGENCY TRACK_TYPE DIST2LAND LANDFALL IFLAG USA_AGENCY USA_ATCF_ID USA_LAT USA_LON USA_RECORD USA_STATUS USA_WIND USA_PRES USA_SSHS USA_R34_NE USA_R34_SE USA_R34_SW USA_R34_NW USA_R50_NE USA_R50_SE USA_R50_SW USA_R50_NW USA_R64_NE USA_R64_SE USA_R64_SW USA_R64_NW USA_POCI USA_ROCI USA_RMW USA_EYE TOKYO_LAT TOKYO_LON TOKYO_GRADE TOKYO_WIND TOKYO_PRES TOKYO_R50_DIR TOKYO_R50_LONG TOKYO_R50_SHORT TOKYO_R30_DIR TOKYO_R30_LONG TOKYO_R30_SHORT TOKYO_LAND CMA_LAT CMA_LON CMA_CAT CMA_WIND CMA_PRES HKO_LAT HKO_LON HKO_CAT HKO_WIND HKO_PRES NEWDELHI_LAT NEWDELHI_LON NEWDELHI_GRADE NEWDELHI_WIND NEWDELHI_PRES NEWDELHI_CI NEWDELHI_DP NEWDELHI_POCI REUNION_LAT REUNION_LON REUNION_TYPE REUNION_WIND REUNION_PRES REUNION_TNUM REUNION_CI REUNION_RMW REUNION_R34_NE REUNION_R34_SE REUNION_R34_SW REUNION_R34_NW REUNION_R50_NE REUNION_R50_SE REUNION_R50_SW REUNION_R50_NW REUNION_R64_NE REUNION_R64_SE REUNION_R64_SW REUNION_R64_NW BOM_LAT BOM_LON BOM_TYPE BOM_WIND BOM_PRES BOM_TNUM BOM_CI BOM_RMW BOM_R34_NE BOM_R34_SE BOM_R34_SW BOM_R34_NW BOM_R50_NE BOM_R50_SE BOM_R50_SW BOM_R50_NW BOM_R64_NE BOM_R64_SE BOM_R64_SW BOM_R64_NW BOM_ROCI BOM_POCI BOM_EYE BOM_POS_METHOD BOM_PRES_METHOD NADI_LAT NADI_LON NADI_CAT NADI_WIND NADI_PRES WELLINGTON_LAT WELLINGTON_LON WELLINGTON_WIND WELLINGTON_PRES DS824_LAT DS824_LON DS824_STAGE DS824_WIND DS824_PRES TD9636_LAT TD9636_LON TD9636_STAGE TD9636_WIND TD9636_PRES TD9635_LAT TD9635_LON TD9635_WIND TD9635_PRES TD9635_ROCI NEUMANN_LAT NEUMANN_LON NEUMANN_CLASS NEUMANN_WIND NEUMANN_PRES MLC_LAT MLC_LON MLC_CLASS MLC_WIND MLC_PRES USA_GUST BOM_GUST BOM_GUST_PER REUNION_GUST REUNION_GUST_PER USA_SEAHGT USA_SEARAD_NE USA_SEARAD_SE USA_SEARAD_SW USA_SEARAD_NW STORM_SPEED STORM_DIR
1915295N12130 1915 45 WP MM NOT_NAMED 1915-10-22 10:00:00 NR 11.8000 130.400 main 509 509 __________O___ -1 11.8000 130.400 4 0 0
1915295N12130 1915 45 WP MM NOT_NAMED 1915-10-22 12:00:00 NR 11.7990 130.411 main 509 509 __________P___ -1 11.7990 130.411 4 0 0
1915295N12130 1915 45 WP MM NOT_NAMED 1915-10-22 15:00:00 NR 11.8042 130.391 main 509 498 __________P___ -1 11.8042 130.391 4 1 283
1915295N12130 1915 45 WP MM NOT_NAMED 1915-10-22 18:00:00 NR 11.8264 130.281 main 498 469 __________P___ -1 11.8264 130.281 4 4 281
1915295N12130 1915 45 WP MM NOT_NAMED 1915-10-22 21:00:00 NR 11.8758 130.027 main 469 458 __________P___ -1 11.8758 130.027 4 6 281
1915295N12130 1915 45 WP MM NOT_NAMED 1915-10-22 22:00:00 NR 11.9000 129.900 main 458 426 __________O___ -1 11.9000 129.900 4 9 281
1915295N12130 1915 45 WP MM NOT_NAMED 1915-10-23 00:00:00 NR 11.9610 129.578 main 429 369 __________P___ -1 11.9610 129.578 4 11 281
1915295N12130 1915 45 WP MM NOT_NAMED 1915-10-23 03:00:00 NR 12.0774 128.957 main 369 293 __________P___ -1 12.0774 128.957 4 13 281
1915295N12130 1915 45 WP MM NOT_NAMED 1915-10-23 06:00:00 NR 12.2124 128.227 main 293 217 __________P___ -1 12.2124 128.227 4 15 281
1915295N12130 1915 45 WP MM NOT_NAMED 1915-10-23 09:00:00 NR 12.3536 127.455 main 218 186 __________P___ -1 12.3536 127.455 4 15 281
1915295N12130 1915 45 WP MM NOT_NAMED 1915-10-23 10:00:00 NR 12.4000 127.200 main 186 134 __________O___ -1 12.4000 127.200 4 15 281
1915295N12130 1915 45 WP MM NOT_NAMED 1915-10-23 12:00:00 NR 12.4885 126.723 main 134 70 __________P___ -1 12.4885 126.723 4 14 281
1915295N12130 1915 45 WP MM NOT_NAMED 1915-10-23 15:00:00 NR 12.6216 126.002 main 70 24 __________P___ -1 12.6216 126.002 4 14 281
1915295N12130 1915 45 WP MM NOT_NAMED 1915-10-23 18:00:00 NR 12.7492 125.292 main 24 33 __________P___ -1 12.7492 125.292 4 14 280
1915295N12130 1915 45 WP MM NOT_NAMED 1915-10-23 21:00:00 NR 12.8650 124.614 main 44 32 __________P___ -1 12.8650 124.614 4 13 280
1915295N12130 1915 45 WP MM NOT_NAMED 1915-10-23 22:00:00 NR 12.9000 124.400 main 32 0 __________O___ -1 12.9000 124.400 4 12 279
1915295N12130 1915 45 WP MM NOT_NAMED 1915-10-24 00:00:00 NR 12.9607 124.004 main 0 0 __________P___ -1 12.9607 124.004 4 11 279
1915295N12130 1915 45 WP MM NOT_NAMED 1915-10-24 03:00:00 NR 13.0397 123.448 main 0 0 __________P___ -1 13.0397 123.448 4 11 278
1915295N12130 1915 45 WP MM NOT_NAMED 1915-10-24 06:00:00 NR 13.1098 122.916 main 24 0 __________P___ -1 13.1098 122.916 4 10 278
1915295N12130 1915 45 WP MM NOT_NAMED 1915-10-24 09:00:00 NR 13.1771 122.383 main 21 21 __________P___ -1 13.1771 122.383 4 11 277
1915295N12130 1915 45 WP MM NOT_NAMED 1915-10-24 10:00:00 NR 13.2000 122.200 main 39 39 __________O___ -1 13.2000 122.200 4 12 275
1915295N12130 1915 45 WP MM NOT_NAMED 1915-10-24 12:00:00 NR 13.2266 121.785 main 39 0 __________P___ -1 13.2266 121.785 4 12 274
1915295N12130 1915 45 WP MM NOT_NAMED 1915-10-24 15:00:00 NR 13.2660 121.149 main 0 0 __________P___ -1 13.2660 121.149 4 12 275
1915295N12130 1915 45 WP MM NOT_NAMED 1915-10-24 18:00:00 NR 13.3294 120.531 main 0 0 __________P___ -1 13.3294 120.531 4 12 279
1915295N12130 1915 45 WP MM NOT_NAMED 1915-10-24 21:00:00 NR 13.4450 119.969 main 32 44 __________P___ -1 13.4450 119.969 4 11 283
1915295N12130 1915 45 WP MM NOT_NAMED 1915-10-24 22:00:00 NR 13.5000 119.800 main 55 55 __________O___ -1 13.5000 119.800 4 10 294
1915295N12130 1915 45 WP MM NOT_NAMED 1915-10-25 00:00:00 NR 13.6454 119.510 main 89 92 __________P___ -1 13.6454 119.510 4 9 303
1915295N12130 1915 45 WP MM NOT_NAMED 1915-10-25 03:00:00 NR 13.9207 119.137 main 141 140 __________P___ -1 13.9207 119.137 4 9 311
1915295N12130 1915 45 WP MM NOT_NAMED 1915-10-25 06:00:00 NR 14.2424 118.812 main 155 150 __________P___ -1 14.2424 118.812 4 9 317
1915295N12130 1915 45 WP MM NOT_NAMED 1915-10-25 09:00:00 NR 14.5853 118.504 main 173 173 __________P___ -1 14.5853 118.504 4 9 319
1915295N12130 1915 45 WP MM NOT_NAMED 1915-10-25 10:00:00 NR 14.7000 118.400 main 179 179 __________O___ -1 14.7000 118.400 4 10 316
1915295N12130 1915 45 WP MM NOT_NAMED 1915-10-25 12:00:00 NR 14.9292 118.164 main 190 198 __________P___ -1 14.9292 118.164 4 10 316
1915295N12130 1915 45 WP MM NOT_NAMED 1915-10-25 15:00:00 NR 15.2799 117.810 main 218 218 __________P___ -1 15.2799 117.810 4 10 315
1915295N12130 1915 45 WP MM NOT_NAMED 1915-10-25 18:00:00 NR 15.6164 117.459 main 239 248 __________P___ -1 15.6164 117.459 4 9 313
1915295N12130 1915 45 WP MM NOT_NAMED 1915-10-25 21:00:00 NR 15.9139 117.113 main 278 278 __________P___ -1 15.9139 117.113 4 9 311
1915295N12130 1915 45 WP MM NOT_NAMED 1915-10-25 22:00:00 NR 16.0000 117.000 main 288 288 __________O___ -1 16.0000 117.000 4 8 306
1915295N12130 1915 45 WP MM NOT_NAMED 1915-10-26 00:00:00 NR 16.1450 116.780 main 310 310 __________P___ -1 16.1450 116.780 4 7 301
1915295N12130 1915 45 WP MM NOT_NAMED 1915-10-26 03:00:00 NR 16.3186 116.456 main 343 354 __________P___ -1 16.3186 116.456 4 7 297
1915295N12130 1915 45 WP MM NOT_NAMED 1915-10-26 06:00:00 NR 16.4535 116.135 main 388 388 __________P___ -1 16.4535 116.135 4 7 292
1915295N12130 1915 45 WP MM NOT_NAMED 1915-10-26 09:00:00 NR 16.5652 115.810 main 421 421 __________P___ -1 16.5652 115.810 4 7 289
1915295N12130 1915 45 WP MM NOT_NAMED 1915-10-26 10:00:00 NR 16.6000 115.700 main 432 432 __________O___ -1 16.6000 115.700 4 7 292
1915295N12130 1915 45 WP MM NOT_NAMED 1915-10-26 12:00:00 NR 16.6936 115.486 main 455 455 __________P___ -1 16.6936 115.486 4 7 293
1915295N12130 1915 45 WP MM NOT_NAMED 1915-10-26 15:00:00 NR 16.8217 115.158 main 488 498 __________P___ -1 16.8217 115.158 4 7 290
1915295N12130 1915 45 WP MM NOT_NAMED 1915-10-26 18:00:00 NR 16.9244 114.812 main 502 459 __________P___ -1 16.9244 114.812 4 7 284
1915295N12130 1915 45 WP MM NOT_NAMED 1915-10-26 21:00:00 NR 16.9890 114.435 main 459 449 __________P___ -1 16.9890 114.435 4 7 279
1915295N12130 1915 45 WP MM NOT_NAMED 1915-10-26 22:00:00 NR 17.0000 114.300 main 449 421 __________O___ -1 17.0000 114.300 4 8 273
1915295N12130 1915 45 WP MM NOT_NAMED 1915-10-27 00:00:00 NR 17.0089 114.009 main 421 375 __________P___ -1 17.0089 114.009 4 9 269
1915295N12130 1915 45 WP MM NOT_NAMED 1915-10-27 03:00:00 NR 16.9844 113.541 main 375 347 __________P___ -1 16.9844 113.541 4 9 265
1915295N12130 1915 45 WP MM NOT_NAMED 1915-10-27 06:00:00 NR 16.9230 113.052 main 347 307 __________P___ -1 16.9230 113.052 4 10 261
1915295N12130 1915 45 WP MM NOT_NAMED 1915-10-27 09:00:00 NR 16.8341 112.561 main 315 300 __________P___ -1 16.8341 112.561 4 10 259
1915295N12130 1915 45 WP MM NOT_NAMED 1915-10-27 10:00:00 NR 16.8000 112.400 main 300 285 __________O___ -1 16.8000 112.400 4 9 258
1915295N12130 1915 45 WP MM NOT_NAMED 1915-10-27 12:00:00 NR 16.7387 112.100 main 287 268 __________P___ -1 16.7387 112.100 4 9 256
1915295N12130 1915 45 WP MM NOT_NAMED 1915-10-27 15:00:00 NR 16.6281 111.655 main 270 247 __________P___ -1 16.6281 111.655 4 9 254
1915295N12130 1915 45 WP MM NOT_NAMED 1915-10-27 18:00:00 NR 16.4981 111.211 main 247 232 __________P___ -1 16.4981 111.211 4 9 252
1915295N12130 1915 45 WP MM NOT_NAMED 1915-10-27 21:00:00 NR 16.3519 110.756 main 232 219 __________P___ -1 16.3519 110.756 4 9 251
1915295N12130 1915 45 WP MM NOT_NAMED 1915-10-27 22:00:00 NR 16.3000 110.600 main 219 187 __________O___ -1 16.3000 110.600 4 10 249
1915295N12130 1915 45 WP MM NOT_NAMED 1915-10-28 00:00:00 NR 16.1763 110.278 main 187 131 __________P___ -1 16.1763 110.278 4 10 248
1915295N12130 1915 45 WP MM NOT_NAMED 1915-10-28 03:00:00 NR 15.9777 109.782 main 131 77 __________P___ -1 15.9777 109.782 4 10 248
1915295N12130 1915 45 WP MM NOT_NAMED 1915-10-28 06:00:00 NR 15.7886 109.277 main 77 24 __________P___ -1 15.7886 109.277 4 10 251
1915295N12130 1915 45 WP MM NOT_NAMED 1915-10-28 09:00:00 NR 15.6372 108.769 main 24 10 __________P___ -1 15.6372 108.769 4 10 254
1915295N12130 1915 45 WP MM NOT_NAMED 1915-10-28 10:00:00 NR 15.6000 108.600 main 10 0 __________O___ -1 15.6000 108.600 4 10 260
1915295N12130 1915 45 WP MM NOT_NAMED 1915-10-28 12:00:00 NR 15.5493 108.264 main 0 0 __________P___ -1 15.5493 108.264 4 10 265
1915295N12130 1915 45 WP MM NOT_NAMED 1915-10-28 15:00:00 NR 15.5237 107.762 main 0 0 __________P___ -1 15.5237 107.762 4 10 270
1915295N12130 1915 45 WP MM NOT_NAMED 1915-10-28 18:00:00 NR 15.5416 107.264 main 0 0 __________P___ -1 15.5416 107.264 4 10 274
1915295N12130 1915 45 WP MM NOT_NAMED 1915-10-28 21:00:00 NR 15.5838 106.766 main 0 0 __________P___ -1 15.5838 106.766 4 10 275
1915295N12130 1915 45 WP MM NOT_NAMED 1915-10-28 22:00:00 NR 15.6000 106.600 main 0 __________O___ -1 15.6000 106.600 7 10 276

Digital Typhoon Data and Search

About IBTrACS Database

This database is a web-friendly format of International Best Track Archive for Climate Stewardship (IBTrACS), a global best track data archive curated by NOAA dating back to 1842.

Updated: 2021-11-26